createdAt,value
2024-03-11T00:00:45.305Z,54.55
2024-03-11T00:03:13.639Z,55.64
2024-03-11T00:05:41.876Z,55.25
2024-03-11T00:08:10.715Z,54.73
2024-03-11T00:10:39.779Z,54.75
2024-03-11T00:13:10.588Z,54.53
2024-03-11T00:15:39.599Z,55.56
2024-03-11T00:18:09.086Z,54.76
2024-03-11T00:20:37.241Z,55.95
2024-03-11T00:23:05.108Z,53.73
2024-03-11T00:25:32.601Z,56.79
2024-03-11T00:28:00.447Z,57.59
2024-03-11T00:30:27.897Z,56.11
2024-03-11T00:32:55.523Z,56.17
2024-03-11T00:35:25.616Z,55.15
2024-03-11T00:37:53.169Z,54.63
2024-03-11T00:40:21.133Z,56.37
2024-03-11T00:42:48.652Z,55.60
2024-03-11T00:45:16.177Z,54.55
2024-03-11T00:47:44.419Z,55.42
2024-03-11T00:50:14.774Z,53.79
2024-03-11T00:52:45.978Z,54.51
2024-03-11T00:55:13.844Z,56.85
2024-03-11T00:57:43.685Z,55.29
2024-03-11T01:00:13.771Z,57.38
2024-03-11T01:02:42.765Z,56.47
2024-03-11T01:05:11.383Z,57.22
2024-03-11T01:07:45.640Z,57.10
2024-03-11T01:10:16.893Z,57.57
2024-03-11T01:12:46.195Z,55.84
2024-03-11T01:15:14.130Z,55.28
2024-03-11T01:17:42.586Z,55.89
2024-03-11T01:20:14.805Z,56.24
2024-03-11T01:22:42.751Z,57.61
2024-03-11T01:25:11.906Z,55.89
2024-03-11T01:27:42.878Z,55.50
2024-03-11T01:30:11.480Z,58.09
2024-03-11T01:32:39.637Z,57.81
2024-03-11T01:35:07.765Z,57.99
2024-03-11T01:37:37.633Z,58.37
2024-03-11T01:40:11.198Z,55.72
2024-03-11T01:42:39.854Z,53.53
2024-03-11T01:45:09.453Z,57.11
2024-03-11T01:47:39.174Z,54.71
2024-03-11T01:50:09.479Z,58.00
2024-03-11T01:52:39.451Z,56.98
2024-03-11T01:55:07.620Z,57.72
2024-03-11T01:57:35.462Z,56.36
2024-03-11T02:00:09.517Z,56.53
2024-03-11T02:02:39.977Z,55.34
2024-03-11T02:05:10.668Z,56.55
2024-03-11T02:07:38.977Z,58.41
2024-03-11T02:10:09.276Z,56.94
2024-03-11T02:12:37.566Z,54.61
2024-03-11T02:15:06.485Z,54.93
2024-03-11T02:17:36.961Z,56.06
2024-03-11T02:20:09.375Z,56.80
2024-03-11T02:22:37.535Z,55.37
2024-03-11T02:25:06.954Z,56.36
2024-03-11T02:27:34.534Z,58.28
2024-03-11T02:30:02.286Z,56.17
2024-03-11T02:32:30.071Z,57.36
2024-03-11T02:34:57.691Z,57.28
2024-03-11T02:37:25.253Z,54.92
2024-03-11T02:39:52.996Z,54.70
2024-03-11T02:42:21.855Z,56.08
2024-03-11T02:44:49.933Z,54.82
2024-03-11T02:47:18.210Z,56.39
2024-03-11T02:49:45.829Z,57.89
2024-03-11T02:52:13.394Z,57.58
2024-03-11T02:54:42.123Z,57.18
2024-03-11T02:57:09.863Z,54.02
2024-03-11T02:59:41.732Z,56.77
2024-03-11T03:02:09.888Z,57.09
2024-03-11T03:04:40.550Z,57.10
2024-03-11T03:07:08.401Z,57.33
2024-03-11T03:09:37.689Z,56.98
2024-03-11T03:12:05.890Z,58.12
2024-03-11T03:14:33.507Z,57.33
2024-03-11T03:17:02.314Z,58.82
2024-03-11T03:19:29.858Z,59.08
2024-03-11T03:21:57.406Z,58.70
2024-03-11T03:24:24.922Z,56.75
2024-03-11T03:26:52.507Z,56.81
2024-03-11T03:29:20.486Z,59.35
2024-03-11T03:31:48.075Z,58.60
2024-03-11T03:34:16.823Z,59.65
2024-03-11T03:36:44.508Z,58.82
2024-03-11T03:39:12.061Z,61.26
2024-03-11T03:41:39.643Z,60.72
2024-03-11T03:44:07.371Z,60.07
2024-03-11T03:46:34.916Z,60.53
2024-03-11T03:49:02.516Z,61.06
2024-03-11T03:51:31.331Z,60.10
2024-03-11T03:54:00.279Z,58.80
2024-03-11T03:56:27.978Z,58.31
2024-03-11T03:58:56.037Z,60.59
2024-03-11T04:01:24.782Z,57.38
2024-03-11T04:03:52.437Z,56.36
2024-03-11T04:06:19.928Z,54.87
2024-03-11T04:08:48.791Z,58.93
2024-03-11T04:11:16.338Z,61.16
2024-03-11T04:13:43.860Z,57.93
2024-03-11T04:16:13.205Z,58.40
2024-03-11T04:18:43.927Z,57.71
2024-03-11T04:21:13.084Z,57.34
2024-03-11T04:23:41.282Z,57.99
2024-03-11T04:26:10.287Z,58.23
2024-03-11T04:28:37.957Z,57.58
2024-03-11T04:31:06.143Z,58.37
2024-03-11T04:33:35.159Z,59.43
2024-03-11T04:36:03.024Z,59.97
2024-03-11T04:38:30.716Z,59.91
2024-03-11T04:40:58.305Z,60.78
2024-03-11T04:43:27.836Z,58.67
2024-03-11T04:45:56.088Z,58.83
2024-03-11T04:48:23.819Z,57.46
2024-03-11T04:50:51.457Z,59.01
2024-03-11T04:53:19.138Z,58.27
2024-03-11T04:55:48.060Z,58.14
2024-03-11T04:58:15.728Z,56.11
2024-03-11T05:00:44.526Z,56.36
2024-03-11T05:03:14.263Z,55.41
2024-03-11T05:05:42.208Z,54.51
2024-03-11T05:08:10.769Z,57.09
2024-03-11T05:10:39.218Z,54.66
2024-03-11T05:13:07.069Z,55.44
2024-03-11T05:15:34.781Z,55.17
2024-03-11T05:18:04.328Z,56.19
2024-03-11T05:20:32.151Z,55.05
2024-03-11T05:22:59.730Z,56.14
2024-03-11T05:25:27.688Z,55.07
2024-03-11T05:27:55.231Z,55.16
2024-03-11T05:30:23.170Z,61.07
2024-03-11T05:32:50.727Z,59.04
2024-03-11T05:35:23.045Z,59.66
2024-03-11T05:37:53.366Z,56.75
2024-03-11T05:40:20.937Z,57.15
2024-03-11T05:42:49.693Z,55.84
2024-03-11T05:45:17.558Z,54.84
2024-03-11T05:47:46.602Z,57.53
2024-03-11T05:50:15.978Z,56.14
2024-03-11T05:52:47.384Z,57.19
2024-03-11T05:55:15.236Z,57.57
2024-03-11T05:57:44.634Z,54.49
2024-03-11T06:00:17.364Z,53.37
2024-03-11T06:02:46.339Z,53.85
2024-03-11T06:05:15.340Z,53.18
2024-03-11T06:07:43.568Z,58.07
2024-03-11T06:10:12.915Z,57.32
2024-03-11T06:12:40.926Z,57.35
2024-03-11T06:15:09.801Z,55.79
2024-03-11T06:17:37.380Z,54.21
2024-03-11T06:20:10.633Z,55.48
2024-03-11T06:22:39.188Z,55.19
2024-03-11T06:25:07.834Z,56.18
2024-03-11T06:27:37.367Z,55.22
2024-03-11T06:30:06.137Z,55.47
2024-03-11T06:32:35.009Z,56.60
2024-03-11T06:35:04.373Z,54.67
2024-03-11T06:37:33.017Z,54.24
2024-03-11T06:40:00.658Z,58.97
2024-03-11T06:42:30.166Z,55.73
2024-03-11T06:44:59.018Z,56.27
2024-03-11T06:47:26.925Z,55.93
2024-03-11T06:49:54.551Z,55.00
2024-03-11T06:52:22.718Z,55.04
2024-03-11T06:54:50.475Z,53.67
2024-03-11T06:57:18.070Z,55.93
2024-03-11T06:59:46.499Z,54.56
2024-03-11T07:02:15.717Z,53.29
2024-03-11T07:04:43.835Z,52.92
2024-03-11T07:07:11.295Z,51.81
2024-03-11T07:09:38.728Z,51.39
2024-03-11T07:12:05.595Z,54.57
2024-03-11T07:14:33.150Z,52.11
2024-03-11T07:17:03.475Z,53.16
2024-03-11T07:19:32.579Z,52.68
2024-03-11T07:22:00.087Z,52.70
2024-03-11T07:24:28.251Z,52.75
2024-03-11T07:26:56.518Z,53.87
2024-03-11T07:29:24.025Z,57.39
2024-03-11T07:31:55.112Z,55.63
2024-03-11T07:34:24.502Z,55.07
2024-03-11T07:36:56.801Z,54.55
2024-03-11T07:39:25.626Z,52.00
2024-03-11T07:41:54.201Z,52.70
2024-03-11T07:44:21.908Z,53.27
2024-03-11T07:46:49.424Z,52.34
2024-03-11T07:49:17.149Z,51.01
2024-03-11T07:51:44.653Z,50.96
2024-03-11T07:54:13.471Z,53.21
2024-03-11T07:56:41.886Z,51.18
2024-03-11T07:59:09.615Z,51.47
2024-03-11T08:01:37.631Z,52.16
2024-03-11T08:04:07.226Z,52.55
2024-03-11T08:06:36.293Z,51.33
2024-03-11T08:09:04.127Z,51.50
2024-03-11T08:11:33.190Z,51.39
2024-03-11T08:14:00.657Z,52.06
2024-03-11T08:16:28.387Z,51.88
2024-03-11T08:18:55.902Z,52.03
2024-03-11T08:21:23.747Z,52.82
2024-03-11T08:23:51.259Z,51.39
2024-03-11T08:26:19.369Z,54.12
2024-03-11T08:28:48.133Z,51.53
2024-03-11T08:31:15.744Z,49.81
2024-03-11T08:33:43.225Z,50.01
2024-03-11T08:36:10.837Z,49.75
2024-03-11T08:38:39.373Z,49.52
2024-03-11T08:41:07.768Z,49.23
2024-03-11T08:43:35.422Z,51.86
2024-03-11T08:46:04.450Z,52.73
2024-03-11T08:48:32.282Z,51.67
2024-03-11T08:51:00.561Z,51.76
2024-03-11T08:53:28.699Z,49.80
2024-03-11T08:55:57.321Z,49.41
2024-03-11T08:58:25.841Z,48.34
2024-03-11T09:00:53.757Z,48.78
2024-03-11T09:03:24.413Z,48.79
2024-03-11T09:05:51.915Z,48.31
2024-03-11T09:08:19.739Z,48.95
2024-03-11T09:10:48.051Z,48.92
2024-03-11T09:13:15.519Z,47.50
2024-03-11T09:15:45.836Z,47.96
2024-03-11T09:18:14.379Z,47.68
2024-03-11T09:20:46.703Z,47.11
2024-03-11T09:23:14.926Z,47.06
2024-03-11T09:25:42.567Z,47.47
2024-03-11T09:28:10.411Z,46.57
2024-03-11T09:30:39.258Z,46.46
2024-03-11T09:33:10.108Z,46.58
2024-03-11T09:35:37.922Z,46.19
2024-03-11T09:38:07.081Z,46.37
2024-03-11T09:40:34.537Z,45.93
2024-03-11T09:43:04.473Z,45.56
2024-03-11T09:45:36.136Z,46.13
2024-03-11T09:48:05.533Z,45.43
2024-03-11T09:50:35.011Z,45.25
2024-03-11T09:53:07.999Z,44.51
2024-03-11T09:55:38.756Z,45.39
2024-03-11T09:58:11.884Z,45.96
2024-03-11T10:00:50.515Z,45.21
2024-03-11T10:03:21.934Z,44.56
2024-03-11T10:05:49.672Z,45.23
2024-03-11T10:08:19.612Z,44.68
2024-03-11T10:11:13.350Z,44.57
2024-03-11T10:13:43.457Z,44.20
2024-03-11T10:16:18.418Z,44.42
2024-03-11T10:18:55.233Z,43.41
2024-03-11T10:21:23.071Z,42.78
2024-03-11T10:23:50.963Z,42.24
2024-03-11T10:26:19.863Z,42.31
2024-03-11T10:28:48.903Z,43.06
2024-03-11T10:31:24.946Z,42.90
2024-03-11T10:33:55.182Z,41.81
2024-03-11T10:36:26.195Z,42.08
2024-03-11T10:38:58.832Z,41.84
2024-03-11T10:41:29.347Z,43.11
2024-03-11T10:43:58.498Z,42.80
2024-03-11T10:46:26.295Z,42.88
2024-03-11T10:48:55.501Z,42.02
2024-03-11T10:51:23.558Z,41.57
2024-03-11T10:53:53.559Z,41.86
2024-03-11T10:56:24.934Z,41.65
2024-03-11T10:58:57.011Z,42.41
2024-03-11T11:01:34.426Z,42.40
2024-03-11T11:04:07.163Z,42.07
2024-03-11T11:06:35.230Z,41.46
2024-03-11T11:09:12.346Z,41.76
2024-03-11T11:11:43.560Z,41.50
2024-03-11T11:14:13.039Z,42.30
2024-03-11T11:16:44.794Z,42.53
2024-03-11T11:19:16.042Z,43.66
2024-03-11T11:21:45.475Z,42.14
2024-03-11T11:24:32.627Z,41.31
2024-03-11T11:27:07.639Z,41.70
2024-03-11T11:29:37.069Z,43.82
2024-03-11T11:32:06.630Z,41.88
2024-03-11T11:34:49.012Z,42.03
2024-03-11T11:37:35.038Z,42.46
2024-03-11T11:40:30.482Z,42.01
2024-03-11T11:42:59.853Z,41.45
2024-03-11T11:45:57.451Z,41.39
2024-03-11T11:48:27.870Z,41.77
2024-03-11T11:51:00.312Z,42.51
2024-03-11T11:53:34.543Z,41.58
2024-03-11T11:56:05.121Z,41.68
2024-03-11T11:58:33.950Z,42.23
2024-03-11T12:01:05.814Z,41.50
2024-03-11T12:03:36.308Z,41.42
2024-03-11T12:06:19.294Z,41.51
2024-03-11T12:08:48.237Z,41.44
2024-03-11T12:11:19.132Z,40.91
2024-03-11T12:13:46.329Z,40.36
2024-03-11T12:16:24.960Z,41.44
2024-03-11T12:19:01.256Z,39.35
2024-03-11T12:21:30.432Z,39.18
2024-03-11T12:23:58.174Z,39.51
2024-03-11T12:26:32.020Z,38.63
2024-03-11T12:29:02.357Z,38.78
2024-03-11T12:31:34.015Z,40.23
2024-03-11T12:34:03.385Z,38.87
2024-03-11T12:36:31.598Z,38.78
2024-03-11T12:38:59.777Z,39.61
2024-03-11T12:41:42.095Z,39.24
2024-03-11T12:44:18.193Z,40.49
2024-03-11T12:46:49.149Z,39.85
2024-03-11T12:49:16.738Z,39.78
2024-03-11T12:51:44.494Z,39.70
2024-03-11T12:54:20.655Z,39.31
2024-03-11T12:57:05.870Z,39.55
2024-03-11T12:59:34.348Z,38.88
2024-03-11T13:02:18.360Z,39.82
2024-03-11T13:04:47.856Z,39.03
2024-03-11T13:07:15.921Z,39.25
2024-03-11T13:09:44.443Z,38.60
2024-03-11T13:12:18.217Z,39.56
2024-03-11T13:14:47.141Z,39.54
2024-03-11T13:17:19.375Z,39.41
2024-03-11T13:19:48.454Z,39.27
2024-03-11T13:22:19.879Z,39.46
2024-03-11T13:24:48.271Z,39.25
2024-03-11T13:27:16.446Z,38.91
2024-03-11T13:29:44.082Z,39.17
2024-03-11T13:32:13.469Z,39.65
2024-03-11T13:34:43.668Z,39.69
2024-03-11T13:37:11.540Z,39.47
2024-03-11T13:39:39.947Z,39.77
2024-03-11T13:42:10.636Z,39.87
2024-03-11T13:44:38.650Z,39.15
2024-03-11T13:47:07.526Z,39.52
2024-03-11T13:49:34.967Z,39.02
2024-03-11T13:52:06.312Z,37.93
2024-03-11T13:54:38.192Z,38.85
2024-03-11T13:57:08.360Z,40.21
2024-03-11T13:59:36.185Z,38.94
2024-03-11T14:02:04.097Z,38.43
2024-03-11T14:04:31.759Z,38.21
2024-03-11T14:06:59.723Z,38.61
2024-03-11T14:09:28.624Z,38.27
2024-03-11T14:11:56.082Z,38.68
2024-03-11T14:14:24.792Z,39.19
2024-03-11T14:16:52.985Z,38.53
2024-03-11T14:19:20.586Z,37.92
2024-03-11T14:21:48.743Z,38.23
2024-03-11T14:24:16.608Z,36.86
2024-03-11T14:26:45.577Z,37.63
2024-03-11T14:29:16.464Z,37.22
2024-03-11T14:31:46.266Z,37.47
2024-03-11T14:34:15.097Z,37.64
2024-03-11T14:36:44.867Z,37.19
2024-03-11T14:39:18.198Z,37.42
2024-03-11T14:41:48.520Z,37.92
2024-03-11T14:44:16.648Z,37.86
2024-03-11T14:46:53.189Z,37.95
2024-03-11T14:49:26.537Z,37.34
2024-03-11T14:51:56.107Z,38.31
2024-03-11T14:54:27.079Z,37.10
2024-03-11T14:56:57.740Z,36.82
2024-03-11T14:59:26.404Z,37.47
2024-03-11T15:01:56.490Z,37.25
2024-03-11T15:04:26.914Z,38.93
2024-03-11T15:06:54.959Z,37.96
2024-03-11T15:09:23.228Z,37.45
2024-03-11T15:11:53.748Z,37.53
2024-03-11T15:14:22.585Z,37.49
2024-03-11T15:16:56.719Z,37.25
2024-03-11T15:19:25.340Z,37.82
2024-03-11T15:21:53.032Z,38.10
2024-03-11T15:24:22.293Z,37.89
2024-03-11T15:26:51.068Z,38.45
2024-03-11T15:29:18.642Z,37.87
2024-03-11T15:31:48.967Z,37.27
2024-03-11T15:34:16.698Z,37.67
2024-03-11T15:36:44.284Z,37.36
2024-03-11T15:39:12.546Z,37.23
2024-03-11T15:41:40.726Z,38.13
2024-03-11T15:44:10.918Z,39.23
2024-03-11T15:46:40.057Z,37.87
2024-03-11T15:49:09.129Z,37.71
2024-03-11T15:51:37.068Z,37.74
2024-03-11T15:54:06.763Z,38.21
2024-03-11T15:56:35.193Z,37.85
2024-03-11T15:59:02.638Z,37.23
2024-03-11T16:01:32.849Z,37.43
2024-03-11T16:04:01.631Z,37.43
2024-03-11T16:06:31.409Z,37.69
2024-03-11T16:08:59.000Z,37.70
2024-03-11T16:11:27.183Z,37.31
2024-03-11T16:13:54.394Z,37.26
2024-03-11T16:16:22.274Z,37.19
2024-03-11T16:18:49.018Z,37.08
2024-03-11T16:21:16.574Z,37.84
2024-03-11T16:23:47.172Z,37.15
2024-03-11T16:26:15.556Z,37.60
2024-03-11T16:28:43.868Z,36.92
2024-03-11T16:31:13.347Z,37.80
2024-03-11T16:33:41.025Z,37.69
2024-03-11T16:36:11.105Z,37.70
2024-03-11T16:38:37.682Z,37.51
2024-03-11T16:41:06.538Z,37.73
2024-03-11T16:43:33.370Z,38.47
2024-03-11T16:46:02.873Z,37.95
2024-03-11T16:48:29.675Z,38.14
2024-03-11T16:50:57.194Z,38.13
2024-03-11T16:53:23.826Z,37.96
2024-03-11T16:55:55.106Z,38.31
2024-03-11T16:58:25.447Z,38.34
2024-03-11T17:00:53.737Z,38.50
2024-03-11T17:03:21.542Z,38.45
2024-03-11T17:05:49.740Z,38.31
2024-03-11T17:08:17.221Z,38.33
2024-03-11T17:10:46.781Z,38.84
2024-03-11T17:13:15.858Z,38.67
2024-03-11T17:15:44.997Z,38.78
2024-03-11T17:18:13.595Z,39.57
2024-03-11T17:20:46.027Z,39.63
2024-03-11T17:23:17.196Z,39.54
2024-03-11T17:25:45.999Z,39.62
2024-03-11T17:28:17.334Z,39.67
2024-03-11T17:30:47.948Z,40.12
2024-03-11T17:33:15.735Z,39.89
2024-03-11T17:35:46.366Z,39.57
2024-03-11T17:38:14.727Z,39.90
2024-03-11T17:40:44.025Z,39.67
2024-03-11T17:43:11.802Z,40.16
2024-03-11T17:45:43.115Z,39.92
2024-03-11T17:48:12.184Z,40.06
2024-03-11T17:50:40.351Z,40.30
2024-03-11T17:53:07.466Z,40.12
2024-03-11T17:55:38.184Z,39.98
2024-03-11T17:58:06.013Z,40.16
2024-03-11T18:00:35.374Z,40.21
2024-03-11T18:03:03.749Z,40.36
2024-03-11T18:05:33.696Z,40.19
2024-03-11T18:08:01.066Z,40.23
2024-03-11T18:10:33.181Z,40.39
2024-03-11T18:13:01.514Z,40.48
2024-03-11T18:15:29.884Z,40.49
2024-03-11T18:17:56.856Z,40.55
2024-03-11T18:20:28.065Z,40.85
2024-03-11T18:22:57.264Z,40.92
2024-03-11T18:25:26.140Z,40.91
2024-03-11T18:27:57.840Z,41.10
2024-03-11T18:30:26.453Z,40.88
2024-03-11T18:32:57.091Z,41.10
2024-03-11T18:35:26.596Z,40.82
2024-03-11T18:37:54.835Z,41.18
2024-03-11T18:40:24.682Z,40.95
2024-03-11T18:42:53.353Z,41.59
2024-03-11T18:45:24.218Z,41.36
2024-03-11T18:47:52.006Z,41.64
2024-03-11T18:50:20.941Z,41.32
2024-03-11T18:52:58.406Z,41.48
2024-03-11T18:55:31.582Z,41.85
2024-03-11T18:58:00.809Z,41.98
2024-03-11T19:00:30.911Z,42.08
2024-03-11T19:03:00.335Z,41.80
2024-03-11T19:05:28.637Z,42.24
2024-03-11T19:07:57.181Z,42.17
2024-03-11T19:10:28.034Z,42.46
2024-03-11T19:12:57.826Z,42.52
2024-03-11T19:15:28.837Z,42.16
2024-03-11T19:17:56.886Z,42.39
2024-03-11T19:20:26.805Z,42.64
2024-03-11T19:22:56.084Z,42.69
2024-03-11T19:25:28.012Z,42.37
2024-03-11T19:27:58.281Z,42.47
2024-03-11T19:30:29.121Z,42.47
2024-03-11T19:32:58.529Z,43.41
2024-03-11T19:35:26.402Z,43.24
2024-03-11T19:38:49.861Z,43.50
2024-03-11T19:41:27.198Z,43.39
2024-03-11T19:44:17.350Z,43.60
2024-03-11T19:47:18.023Z,43.84
2024-03-11T19:50:12.336Z,44.10
2024-03-11T19:53:58.863Z,43.88
2024-03-11T19:57:26.323Z,43.74
2024-03-11T20:00:35.484Z,44.28
2024-03-11T20:03:19.207Z,44.48
2024-03-11T20:06:21.693Z,44.26
2024-03-11T20:09:19.322Z,44.42
2024-03-11T20:12:31.132Z,44.55
2024-03-11T20:15:02.648Z,44.55
2024-03-11T20:17:54.072Z,44.62
2024-03-11T20:20:55.009Z,44.87
2024-03-11T20:23:59.594Z,45.11
2024-03-11T20:26:31.709Z,45.03
2024-03-11T20:29:07.151Z,45.27
2024-03-11T20:31:53.256Z,45.18
2024-03-11T20:34:21.136Z,45.56
2024-03-11T20:36:49.214Z,46.21
2024-03-11T20:39:17.707Z,45.80
2024-03-11T20:41:45.273Z,45.77
2024-03-11T20:44:12.751Z,45.47
2024-03-11T20:46:41.515Z,45.34
2024-03-11T20:49:09.340Z,45.51
2024-03-11T20:51:40.635Z,45.22
2024-03-11T20:54:08.486Z,45.06
2024-03-11T20:56:35.988Z,44.91
2024-03-11T20:59:03.663Z,44.77
2024-03-11T21:01:32.482Z,44.95
2024-03-11T21:04:01.979Z,44.89
2024-03-11T21:06:29.517Z,44.46
2024-03-11T21:08:57.012Z,44.60
2024-03-11T21:11:25.031Z,44.48
2024-03-11T21:13:52.556Z,44.23
2024-03-11T21:16:20.601Z,44.69
2024-03-11T21:18:59.083Z,45.36
2024-03-11T21:21:54.715Z,44.89
2024-03-11T21:24:40.351Z,44.65
2024-03-11T21:27:17.055Z,45.45
2024-03-11T21:29:44.779Z,45.67
2024-03-11T21:32:14.276Z,45.51
2024-03-11T21:34:46.022Z,46.05
2024-03-11T21:37:15.939Z,46.53
2024-03-11T21:39:44.689Z,46.28
2024-03-11T21:42:13.022Z,46.50
2024-03-11T21:44:40.665Z,46.49
2024-03-11T21:47:08.144Z,46.22
2024-03-11T21:49:35.598Z,46.54
2024-03-11T21:52:03.094Z,46.17
2024-03-11T21:54:35.074Z,46.18
2024-03-11T21:57:04.523Z,46.31
2024-03-11T21:59:32.011Z,46.69
2024-03-11T22:01:59.539Z,46.55
2024-03-11T22:04:27.084Z,46.45
2024-03-11T22:06:54.558Z,46.72
2024-03-11T22:09:23.957Z,46.57
2024-03-11T22:11:52.829Z,46.62
2024-03-11T22:14:20.367Z,46.87
2024-03-11T22:16:47.841Z,47.19
2024-03-11T22:19:15.302Z,46.65
2024-03-11T22:21:42.822Z,47.01
2024-03-11T22:24:11.806Z,47.03
2024-03-11T22:26:42.514Z,46.65
2024-03-11T22:29:12.733Z,46.03
2024-03-11T22:31:40.867Z,46.82
2024-03-11T22:34:08.744Z,46.90
2024-03-11T22:36:38.276Z,46.68
2024-03-11T22:39:08.945Z,46.75
2024-03-11T22:41:36.557Z,46.56
2024-03-11T22:44:04.138Z,46.46
2024-03-11T22:46:33.131Z,46.80
2024-03-11T22:49:08.508Z,47.67
2024-03-11T22:51:41.109Z,47.75
2024-03-11T22:54:09.102Z,47.38
2024-03-11T22:56:37.909Z,47.58
2024-03-11T22:59:07.383Z,47.22
2024-03-11T23:01:36.447Z,47.12
2024-03-11T23:04:04.353Z,47.02
2024-03-11T23:06:33.417Z,47.01
2024-03-11T23:09:01.086Z,47.52
2024-03-11T23:11:28.777Z,47.67
2024-03-11T23:13:57.363Z,47.88
2024-03-11T23:16:26.844Z,48.54
2024-03-11T23:18:55.727Z,48.59
2024-03-11T23:21:24.390Z,48.56
2024-03-11T23:23:52.006Z,48.91
2024-03-11T23:26:19.546Z,48.27
2024-03-11T23:28:47.279Z,48.22
2024-03-11T23:31:17.550Z,47.75
2024-03-11T23:33:45.282Z,47.92
2024-03-11T23:36:14.595Z,47.73
2024-03-11T23:38:42.278Z,47.74
2024-03-11T23:41:13.143Z,47.86
2024-03-11T23:43:42.134Z,47.92
2024-03-11T23:46:09.993Z,48.29
2024-03-11T23:48:44.361Z,48.05
2024-03-11T23:51:13.816Z,47.91
2024-03-11T23:53:41.611Z,48.17
2024-03-11T23:56:10.193Z,48.40
2024-03-11T23:58:38.832Z,48.27
